Time;durP1;ratioP1;P1;durP2;ratioP2;P2;SDS_P1;SDS_P2;PMS_P1;PMS_P2;Temp;Humidity;BMP_temperature;BMP_pressure;BME280_temperature;BME280_humidity;BME280_pressure;Samples;Min_cycle;Max_cycle;Signal;HPM_P1;HPM_P2
2022/01/27 00:05:03;;;;;;;1.17;1.13;;;5.50;99.90;5.30;102668.00;;;;5044003;28;20588;-62
2022/01/27 00:07:32;;;;;;;3.23;3.13;;;5.60;99.90;5.70;102661.00;;;;5039420;28;20251;-62
2022/01/27 00:10:13;;;;;;;3.40;3.20;;;5.70;99.90;5.60;102660.00;;;;5070986;28;20639;-63
2022/01/27 00:12:42;;;;;;;4.53;4.00;;;5.80;99.90;5.00;102662.00;;;;5058736;28;20222;-63
2022/01/27 00:15:12;;;;;;;0.40;0.40;;;5.60;99.90;5.70;102661.00;;;;5074952;28;20185;-63
2022/01/27 00:17:44;;;;;;;0.67;0.67;;;5.70;99.90;5.50;102622.00;;;;5056618;28;20228;-63
2022/01/27 00:20:13;;;;;;;0.63;0.63;;;5.70;99.90;6.10;102646.00;;;;5057627;28;20183;-63
2022/01/27 00:22:39;;;;;;;0.60;0.60;;;5.90;99.90;5.40;102651.00;;;;5039035;28;20225;-63
2022/01/27 00:25:06;;;;;;;2.77;2.37;;;5.80;99.90;6.00;102661.00;;;;5070802;28;20194;-64
2022/01/27 00:27:33;;;;;;;1.47;1.37;;;5.90;99.90;6.20;102648.00;;;;5037092;28;20182;-62
2022/01/27 00:30:06;;;;;;;0.30;0.30;;;6.10;99.90;5.80;102638.00;;;;5043779;28;20666;-63
2022/01/27 00:32:32;;;;;;;0.57;0.57;;;6.00;99.90;6.20;102642.00;;;;5054999;28;20225;-63
2022/01/27 00:34:59;;;;;;;4.60;4.30;;;6.10;99.90;5.90;102643.00;;;;5043931;28;20190;-64
2022/01/27 00:37:26;;;;;;;4.87;1.90;;;6.10;99.90;6.60;102649.00;;;;5053458;28;20221;-63
2022/01/27 00:39:52;;;;;;;0.63;0.63;;;6.20;99.90;6.30;102587.00;;;;5035658;28;20679;-63
2022/01/27 00:42:18;;;;;;;0.80;0.80;;;6.30;99.90;5.60;102638.00;;;;5054709;28;20215;-63
2022/01/27 00:44:44;;;;;;;0.90;0.90;;;6.00;99.90;6.20;102640.00;;;;5054994;28;20173;-64
2022/01/27 00:47:09;;;;;;;0.77;0.77;;;6.10;99.90;6.30;102642.00;;;;5036539;28;20713;-64
2022/01/27 00:49:38;;;;;;;5.20;3.60;;;6.20;99.90;5.90;102633.00;;;;5037012;28;20271;-63
2022/01/27 00:52:09;;;;;;;0.30;0.30;;;6.00;99.90;5.70;102632.00;;;;5053834;28;20683;-64
2022/01/27 00:54:35;;;;;;;0.30;0.30;;;6.00;99.90;5.90;102600.00;;;;5035985;28;20240;-64
2022/01/27 00:59:56;;;;;;;0.80;0.80;;;6.00;99.90;6.00;102647.00;;;;5048811;28;20191;-63
2022/01/27 01:04:51;;;;;;;0.30;0.30;;;6.10;99.90;5.70;102575.00;;;;5056603;28;20271;-64
2022/01/27 01:07:18;;;;;;;3.30;3.00;;;5.90;99.90;5.50;102560.00;;;;5088157;28;20187;-63
2022/01/27 01:20:27;;;;;;;1.93;1.77;;;5.80;99.90;5.30;102597.00;;;;5071815;28;20575;-64
2022/01/27 01:31:14;;;;;;;11.53;5.77;;;5.70;99.90;5.30;102592.00;;;;5062594;28;20206;-64
2022/01/27 01:33:43;;;;;;;2.60;2.50;;;5.70;99.90;5.50;102585.00;;;;5050927;28;20592;-64
2022/01/27 01:36:26;;;;;;;0.63;0.63;;;5.70;99.90;6.10;102595.00;;;;5073939;28;20181;-64
2022/01/27 01:38:52;;;;;;;1.17;1.17;;;5.90;99.90;5.90;102601.00;;;;5055294;28;20195;-64
2022/01/27 01:41:18;;;;;;;2.03;1.93;;;5.90;99.90;5.90;102585.00;;;;5073157;28;20180;-64
2022/01/27 01:43:44;;;;;;;4.53;3.23;;;6.00;99.90;5.10;102578.00;;;;5053994;28;20183;-64
2022/01/27 01:46:09;;;;;;;1.80;0.87;;;5.70;99.90;5.60;102593.00;;;;5072680;28;20227;-64
2022/01/27 01:48:35;;;;;;;1.53;1.43;;;5.70;99.90;5.00;102585.00;;;;5050658;28;20214;-64
2022/01/27 01:51:03;;;;;;;1.23;1.23;;;5.50;99.90;5.10;102583.00;;;;5051894;28;20187;-64
2022/01/27 01:53:29;;;;;;;6.33;3.33;;;5.40;99.90;5.00;102572.00;;;;5052590;28;20545;-64
2022/01/27 01:55:55;;;;;;;2.10;1.53;;;5.40;99.90;5.60;102582.00;;;;5039189;28;20174;-64
2022/01/27 01:58:21;;;;;;;0.50;0.50;;;5.60;99.90;5.80;102582.00;;;;5052542;28;20621;-64
2022/01/27 02:00:46;;;;;;;1.27;1.17;;;5.70;99.90;6.00;102559.00;;;;5049674;28;20185;-64
2022/01/27 02:03:12;;;;;;;0.67;0.67;;;5.80;99.90;5.40;102514.00;;;;5068600;28;20674;-63
2022/01/27 02:05:45;;;;;;;0.93;0.93;;;5.80;99.90;5.40;102529.00;;;;5035287;28;20634;-63
2022/01/27 02:19:30;;;;;;;1.60;1.50;;;5.70;99.90;5.50;102557.00;;;;4997805;28;20225;-63
2022/01/27 02:22:03;;;;;;;0.93;0.93;;;5.60;99.90;5.80;102561.00;;;;5018753;28;20200;-64
2022/01/27 02:24:34;;;;;;;2.57;2.37;;;5.80;99.90;5.20;102551.00;;;;5033381;28;20269;-63
2022/01/27 02:27:01;;;;;;;0.87;0.83;;;5.60;99.90;5.80;102548.00;;;;5048375;28;20184;-63
2022/01/27 02:29:28;;;;;;;1.13;0.97;;;5.70;99.90;5.50;102542.00;;;;5033993;28;20190;-64
2022/01/27 02:31:59;;;;;;;4.13;2.63;;;5.60;99.90;5.50;102494.00;;;;5045161;28;20679;-63
2022/01/27 02:34:26;;;;;;;0.37;0.37;;;5.80;99.90;5.70;102537.00;;;;5034272;28;20613;-63
2022/01/27 02:36:52;;;;;;;0.40;0.40;;;5.70;99.90;5.80;102523.00;;;;5051238;28;20179;-64
2022/01/27 02:39:19;;;;;;;0.60;0.60;;;5.80;99.90;6.10;102523.00;;;;5041030;28;20223;-64
2022/01/27 02:41:54;;;;;;;4.13;1.57;;;5.90;99.90;5.70;102476.00;;;;5057288;28;20188;-64
2022/01/27 02:44:32;;;;;;;2.30;1.70;;;6.00;99.90;6.00;102512.00;;;;5059089;28;20706;-64
2022/01/27 02:46:58;;;;;;;2.03;1.93;;;6.00;99.90;5.30;102514.00;;;;5067425;28;20184;-64
2022/01/27 02:49:24;;;;;;;0.97;0.97;;;5.80;99.90;5.20;102489.00;;;;5032127;28;20191;-63
2022/01/27 02:51:52;;;;;;;1.20;1.17;;;5.70;99.90;5.70;102499.00;;;;5033980;28;20205;-63
2022/01/27 02:54:19;;;;;;;6.37;4.93;;;5.80;99.90;5.40;102510.00;;;;5050311;28;20199;-63
2022/01/27 02:56:50;;;;;;;4.33;3.93;;;5.80;99.90;5.40;102501.00;;;;5039774;28;20198;-64
2022/01/27 02:59:19;;;;;;;5.67;4.77;;;5.80;99.90;5.30;102478.00;;;;5051780;28;20665;-62
2022/01/27 03:01:48;;;;;;;7.90;5.37;;;5.80;99.90;5.40;102474.00;;;;5049894;28;20305;-63
2022/01/27 03:04:15;;;;;;;5.33;4.47;;;5.80;99.90;5.40;102510.00;;;;5049373;28;20180;-63
2022/01/27 03:06:43;;;;;;;1.93;1.33;;;5.80;99.90;5.70;102513.00;;;;5071857;28;20653;-63
2022/01/27 03:09:09;;;;;;;7.63;4.80;;;6.00;99.90;5.60;102465.00;;;;5071070;28;20184;-64
2022/01/27 03:11:47;;;;;;;5.80;4.43;;;5.90;99.90;5.40;102475.00;;;;5041762;28;20253;-64
2022/01/27 03:14:17;;;;;;;7.27;4.40;;;5.90;99.90;5.60;102512.00;;;;5052457;28;20195;-63
2022/01/27 03:16:43;;;;;;;1.03;1.00;;;5.90;99.90;6.10;102495.00;;;;5065245;28;20175;-63
2022/01/27 03:19:09;;;;;;;9.90;6.27;;;6.00;99.90;5.40;102499.00;;;;5046307;28;20270;-63
2022/01/27 03:21:36;;;;;;;6.83;4.87;;;5.90;99.90;5.30;102477.00;;;;5053536;28;20194;-63
2022/01/27 03:24:02;;;;;;;3.10;2.83;;;5.90;99.90;5.50;102490.00;;;;5052719;28;20276;-63
2022/01/27 03:26:30;;;;;;;2.00;1.70;;;5.80;99.90;5.40;102477.00;;;;5069905;28;20643;-63
2022/01/27 03:28:56;;;;;;;6.47;4.77;;;5.80;99.90;5.10;102474.00;;;;5065908;28;20192;-63
2022/01/27 03:31:22;;;;;;;3.40;2.33;;;5.70;99.90;5.10;102477.00;;;;5055763;28;20264;-63
2022/01/27 03:33:48;;;;;;;9.80;6.43;;;5.70;99.90;5.40;102474.00;;;;5054416;28;20183;-64
2022/01/27 03:36:14;;;;;;;2.23;2.10;;;5.70;99.90;5.20;102473.00;;;;5057708;28;20274;-63
2022/01/27 03:38:41;;;;;;;12.67;6.63;;;5.70;99.90;5.30;102473.00;;;;5075362;28;20188;-63
2022/01/27 03:41:08;;;;;;;3.40;3.10;;;5.70;99.90;5.40;102464.00;;;;5057188;28;20212;-63
2022/01/27 03:43:37;;;;;;;4.10;2.23;;;5.70;99.90;5.40;102467.00;;;;5073375;28;20635;-63
2022/01/27 03:46:05;;;;;;;3.13;2.73;;;5.70;99.90;5.60;102458.00;;;;5052758;28;20188;-64
2022/01/27 03:48:31;;;;;;;5.77;4.20;;;5.80;99.90;5.10;102447.00;;;;5066231;28;20187;-64
2022/01/27 03:50:57;;;;;;;2.87;2.13;;;5.70;99.90;5.50;102462.00;;;;5040420;28;20185;-63
2022/01/27 03:53:23;;;;;;;3.13;2.53;;;5.70;99.90;5.30;102454.00;;;;5086357;28;20287;-63
2022/01/27 03:55:50;;;;;;;1.87;1.80;;;5.70;99.90;5.90;102459.00;;;;5044715;28;20184;-63
2022/01/27 03:58:17;;;;;;;0.50;0.50;;;5.80;99.90;5.70;102426.00;;;;5056546;28;20521;-64
2022/01/27 04:00:43;;;;;;;2.13;1.70;;;6.00;99.90;5.50;102455.00;;;;5055350;28;20187;-63
2022/01/27 04:03:12;;;;;;;1.93;1.07;;;5.80;99.90;5.30;102452.00;;;;5072957;28;20202;-63
2022/01/27 04:05:49;;;;;;;5.63;1.93;;;5.80;99.90;5.80;102459.00;;;;5053009;28;20187;-64
2022/01/27 04:08:15;;;;;;;19.63;6.20;;;5.80;99.90;6.00;102460.00;;;;5052047;28;20643;-64
2022/01/27 04:10:42;;;;;;;2.53;2.33;;;5.90;99.90;5.20;102466.00;;;;5041017;28;20188;-63
2022/01/27 04:13:08;;;;;;;9.33;3.10;;;5.70;99.90;5.60;102408.00;;;;5053514;28;20224;-64
2022/01/27 04:15:37;;;;;;;4.23;3.93;;;5.70;99.90;5.70;102441.00;;;;5068996;28;20192;-64
2022/01/27 04:18:03;;;;;;;7.47;4.73;;;5.80;99.90;5.80;102451.00;;;;5042511;28;20717;-64
2022/01/27 04:20:30;;;;;;;1.80;1.00;;;5.90;99.90;6.20;102433.00;;;;5034776;28;20188;-64
2022/01/27 04:22:56;;;;;;;4.50;2.43;;;6.00;99.90;5.70;102437.00;;;;5052622;28;20185;-63
2022/01/27 04:25:22;;;;;;;7.07;3.37;;;5.90;99.90;5.70;102402.00;;;;5072986;28;20691;-64
2022/01/27 04:27:55;;;;;;;4.20;3.80;;;5.80;99.90;5.50;102395.00;;;;5073425;28;20191;-64
2022/01/27 04:30:23;;;;;;;7.70;4.23;;;5.70;99.90;5.10;102442.00;;;;5058747;28;20211;-63
2022/01/27 04:32:56;;;;;;;0.87;0.87;;;5.60;99.90;5.80;102432.00;;;;5072461;28;20219;-64
2022/01/27 04:35:26;;;;;;;1.30;1.20;;;5.70;99.90;6.00;102400.00;;;;5058341;28;20196;-64
2022/01/27 04:40:25;;;;;;;1.27;1.27;;;5.60;99.90;5.50;102421.00;;;;5056823;28;20181;-64
2022/01/27 04:45:36;;;;;;;2.20;1.93;;;5.70;99.90;5.60;102393.00;;;;5053381;28;20278;-64
2022/01/27 04:48:15;;;;;;;4.20;2.83;;;5.70;99.90;5.40;102396.00;;;;5037100;28;20191;-64
2022/01/27 04:50:41;;;;;;;1.40;1.40;;;5.60;99.90;5.50;102404.00;;;;5075912;28;20269;-64
2022/01/27 04:53:13;;;;;;;10.23;5.40;;;5.50;99.90;5.60;102403.00;;;;5059020;28;20576;-64
2022/01/27 04:55:41;;;;;;;4.07;2.40;;;5.60;99.90;5.20;102406.00;;;;5054988;28;20194;-63
2022/01/27 04:58:17;;;;;;;0.90;0.87;;;5.50;99.90;5.20;102409.00;;;;5055453;28;20603;-63
2022/01/27 05:00:44;;;;;;;4.07;3.77;;;5.50;99.90;5.00;102412.00;;;;5042562;28;20567;-63
2022/01/27 05:03:16;;;;;;;2.93;2.77;;;5.40;99.90;5.20;102363.00;;;;5057175;28;20185;-63
2022/01/27 05:05:42;;;;;;;0.40;0.40;;;5.40;99.90;5.40;102354.00;;;;5071701;28;20210;-64
2022/01/27 05:08:15;;;;;;;2.57;2.27;;;5.50;99.90;5.50;102372.00;;;;5060583;28;20269;-64
2022/01/27 05:10:41;;;;;;;8.27;6.27;;;5.60;99.90;5.60;102364.00;;;;5045381;28;20186;-64
2022/01/27 05:13:12;;;;;;;4.13;2.50;;;5.70;99.90;5.30;102395.00;;;;5067292;28;20218;-63
2022/01/27 05:15:43;;;;;;;3.77;3.03;;;5.50;99.90;5.20;102393.00;;;;5053429;28;20655;-64
2022/01/27 05:18:10;;;;;;;2.00;1.60;;;5.50;99.90;5.10;102383.00;;;;5051215;28;20237;-64
2022/01/27 05:20:36;;;;;;;6.25;3.63;;;5.50;99.90;5.20;102410.00;;;;5052576;28;20435;-63
2022/01/27 05:23:02;;;;;;;5.30;4.53;;;5.50;99.90;4.90;102401.00;;;;5039756;28;20187;-64
2022/01/27 05:25:28;;;;;;;7.33;5.07;;;5.50;99.90;4.80;102405.00;;;;5072459;28;20271;-63
2022/01/27 05:27:54;;;;;;;11.60;4.87;;;5.40;99.90;5.10;102357.00;;;;5072473;28;20187;-64
2022/01/27 05:30:20;;;;;;;10.30;5.90;;;5.40;99.90;5.10;102345.00;;;;5057814;28;20189;-63
2022/01/27 05:32:46;;;;;;;2.10;2.00;;;5.40;99.90;5.70;102342.00;;;;5065017;28;20303;-64
2022/01/27 05:35:11;;;;;;;0.60;0.60;;;5.60;99.90;5.40;102385.00;;;;5037563;28;20683;-63
2022/01/27 05:37:37;;;;;;;0.97;0.97;;;5.60;99.90;5.30;102373.00;;;;5064284;28;20609;-64
2022/01/27 05:40:04;;;;;;;2.00;0.73;;;5.60;99.90;5.60;102384.00;;;;5070358;28;20726;-64
2022/01/27 05:42:30;;;;;;;0.97;0.97;;;5.60;99.90;5.70;102386.00;;;;5052465;28;20202;-64
2022/01/27 05:44:55;;;;;;;6.40;4.00;;;5.80;99.90;5.30;102363.00;;;;5051387;28;20520;-64
2022/01/27 05:47:24;;;;;;;2.27;1.90;;;5.70;99.90;5.40;102370.00;;;;5042703;28;20191;-63
2022/01/27 05:49:50;;;;;;;5.87;5.30;;;5.70;99.90;5.60;102341.00;;;;5066969;28;20239;-64
2022/01/27 05:52:16;;;;;;;1.90;1.80;;;5.80;99.90;5.70;102371.00;;;;5051998;28;20683;-64
2022/01/27 05:54:42;;;;;;;6.13;5.57;;;5.90;99.90;5.80;102376.00;;;;5042307;28;20177;-64
2022/01/27 05:57:09;;;;;;;3.07;1.70;;;6.00;99.90;6.00;102362.00;;;;5050305;28;20272;-64
2022/01/27 05:59:37;;;;;;;10.87;5.87;;;6.10;99.90;5.90;102364.00;;;;5034777;28;20193;-64
2022/01/27 06:02:03;;;;;;;2.63;1.23;;;6.10;99.90;5.80;102360.00;;;;5060077;28;20199;-64
2022/01/27 06:04:29;;;;;;;4.50;4.07;;;6.10;99.90;5.80;102303.00;;;;5038395;28;20205;-64
2022/01/27 06:06:57;;;;;;;2.00;1.90;;;6.10;99.90;6.40;102356.00;;;;5061677;28;20338;-63
2022/01/27 06:09:25;;;;;;;3.50;2.20;;;6.20;99.90;5.60;102348.00;;;;5072044;28;20715;-64
2022/01/27 06:11:51;;;;;;;15.87;9.67;;;6.20;99.90;5.70;102340.00;;;;5054376;28;20664;-64
2022/01/27 06:14:17;;;;;;;1.67;1.57;;;6.20;99.90;6.10;102312.00;;;;5065075;28;20214;-64
2022/01/27 06:16:46;;;;;;;2.90;2.60;;;6.20;99.90;5.60;102348.00;;;;5063368;28;20546;-64
2022/01/27 06:19:13;;;;;;;3.77;3.43;;;6.20;99.90;5.40;102359.00;;;;5053952;28;20198;-63
2022/01/27 06:21:40;;;;;;;6.73;4.73;;;6.00;99.90;5.60;102365.00;;;;5067980;28;20217;-64
2022/01/27 06:24:09;;;;;;;7.63;5.37;;;6.00;99.90;5.80;102354.00;;;;5051532;28;20184;-63
2022/01/27 06:26:35;;;;;;;8.77;6.77;;;6.10;99.90;6.00;102365.00;;;;5051066;28;20178;-64
2022/01/27 06:29:01;;;;;;;4.03;2.60;;;6.30;99.90;5.60;102346.00;;;;5041880;28;20192;-63
2022/01/27 06:31:26;;;;;;;12.27;8.70;;;6.10;99.90;5.80;102341.00;;;;5061361;28;20208;-63
2022/01/27 06:33:52;;;;;;;2.53;2.33;;;6.20;99.90;5.70;102346.00;;;;5050879;28;20277;-64
2022/01/27 06:36:23;;;;;;;3.63;2.93;;;6.20;99.90;5.80;102320.00;;;;5041263;28;20195;-64
2022/01/27 06:38:51;;;;;;;10.80;4.53;;;6.20;99.90;5.50;102346.00;;;;5049288;28;20224;-65
2022/01/27 06:41:17;;;;;;;5.13;4.57;;;6.20;99.90;5.70;102347.00;;;;5050448;28;20190;-64
2022/01/27 06:43:45;;;;;;;7.00;4.10;;;6.20;99.90;5.80;102342.00;;;;5059356;28;20202;-64
2022/01/27 06:46:14;;;;;;;9.93;7.30;;;6.20;99.90;5.70;102320.00;;;;5071397;28;20639;-64
2022/01/27 06:48:40;;;;;;;10.47;6.30;;;6.20;99.90;5.90;102329.00;;;;5049916;28;20257;-64
2022/01/27 06:51:05;;;;;;;9.43;6.93;;;6.30;99.90;5.90;102327.00;;;;5050990;28;20282;-64
2022/01/27 06:53:36;;;;;;;2.53;2.33;;;6.30;99.90;5.80;102318.00;;;;5067978;28;20181;-63
2022/01/27 06:56:03;;;;;;;4.03;3.73;;;6.30;99.90;6.20;102319.00;;;;5073922;28;20180;-64
2022/01/27 06:58:28;;;;;;;11.10;7.07;;;6.40;99.90;6.50;102319.00;;;;5053995;28;20219;-64
2022/01/27 07:00:54;;;;;;;7.83;6.27;;;6.60;99.90;6.10;102273.00;;;;5053836;28;20591;-64
2022/01/27 07:03:20;;;;;;;7.93;5.13;;;6.50;99.90;6.10;102316.00;;;;5067511;28;20196;-64
2022/01/27 07:05:46;;;;;;;8.77;6.23;;;6.50;99.90;6.00;102314.00;;;;5055222;28;20237;-64
2022/01/27 07:08:11;;;;;;;9.47;5.30;;;6.50;99.90;6.20;102312.00;;;;5056058;28;20181;-64
2022/01/27 07:10:43;;;;;;;2.13;1.93;;;6.50;99.90;6.30;102309.00;;;;5075278;28;20267;-63
2022/01/27 07:13:14;;;;;;;1.47;1.47;;;6.60;99.90;5.90;102307.00;;;;5074557;28;20244;-63
2022/01/27 07:16:59;;;;;;;15.17;8.47;;;6.60;99.90;6.10;102307.00;;;;5057724;28;20227;-63
2022/01/27 07:19:27;;;;;;;8.77;2.23;;;6.60;99.90;6.60;102325.00;;;;5069918;28;20192;-64
2022/01/27 07:21:56;;;;;;;10.37;5.67;;;6.70;99.90;6.20;102327.00;;;;5066505;28;20193;-64
2022/01/27 07:24:22;;;;;;;13.13;6.60;;;6.70;99.90;6.20;102327.00;;;;5053668;28;20233;-64
2022/01/27 07:26:56;;;;;;;6.93;6.23;;;6.70;99.90;6.10;102302.00;;;;5053603;28;20192;-63
2022/01/27 07:29:30;;;;;;;2.67;2.53;;;6.60;99.90;6.50;102321.00;;;;5060524;28;20191;-64
2022/01/27 07:32:07;;;;;;;1.17;1.13;;;6.70;99.90;6.50;102268.00;;;;5062760;28;20220;-64
2022/01/27 07:34:38;;;;;;;16.20;9.73;;;6.80;99.90;6.40;102308.00;;;;5056999;28;20611;-63
2022/01/27 07:37:09;;;;;;;1.57;1.47;;;6.80;99.90;6.40;102313.00;;;;5072913;28;20192;-63
2022/01/27 07:39:38;;;;;;;4.20;2.30;;;6.80;99.90;6.30;102296.00;;;;5037615;28;20189;-63
2022/01/27 07:42:06;;;;;;;7.50;5.67;;;6.80;99.90;6.20;102313.00;;;;5054964;28;20640;-64
2022/01/27 07:44:41;;;;;;;2.10;1.87;;;6.80;99.90;6.40;102327.00;;;;5054886;28;20194;-63
2022/01/27 07:47:10;;;;;;;3.03;2.70;;;6.70;99.90;6.30;102329.00;;;;5023505;28;20194;-63
2022/01/27 07:49:41;;;;;;;11.67;8.03;;;6.70;99.90;6.20;102342.00;;;;5065295;28;20559;-63
2022/01/27 07:52:12;;;;;;;11.10;6.67;;;6.70;99.90;6.40;102308.00;;;;5056411;28;20733;-63
2022/01/27 07:54:44;;;;;;;4.70;4.30;;;6.80;99.90;6.40;102324.00;;;;5038081;28;20203;-63
2022/01/27 07:57:12;;;;;;;20.40;9.97;;;6.80;99.90;6.40;102353.00;;;;5064058;28;20182;-63
2022/01/27 07:59:39;;;;;;;14.53;8.27;;;6.80;99.90;6.90;102357.00;;;;5059811;28;20192;-64
2022/01/27 08:02:08;;;;;;;10.70;5.47;;;7.00;99.90;6.50;102355.00;;;;5078033;28;20247;-63
2022/01/27 08:04:36;;;;;;;7.10;6.40;;;6.90;99.90;6.20;102347.00;;;;5044044;28;20201;-63
2022/01/27 08:07:02;;;;;;;2.87;2.63;;;6.80;99.90;6.50;102355.00;;;;5039163;28;20191;-63
2022/01/27 08:09:29;;;;;;;16.03;7.63;;;6.80;99.90;6.40;102345.00;;;;5055685;28;20216;-64
2022/01/27 08:11:58;;;;;;;24.63;9.17;;;6.90;99.90;6.70;102353.00;;;;5052464;28;20735;-63
2022/01/27 08:14:29;;;;;;;2.93;2.67;;;7.00;99.90;6.60;102313.00;;;;5054537;28;20188;-63
2022/01/27 08:17:01;;;;;;;5.67;2.93;;;6.90;99.90;6.40;102356.00;;;;5054603;28;20186;-63
2022/01/27 08:19:32;;;;;;;10.83;6.33;;;6.90;99.90;6.40;102365.00;;;;5073108;28;20181;-63
2022/01/27 08:22:04;;;;;;;13.37;8.30;;;6.90;99.90;6.40;102355.00;;;;5063302;28;20194;-64
2022/01/27 08:24:29;;;;;;;9.10;5.03;;;6.90;99.90;6.20;102348.00;;;;5054763;28;20223;-64
2022/01/27 08:27:06;;;;;;;17.00;8.37;;;6.80;99.90;6.40;102350.00;;;;5036570;28;20182;-65
2022/01/27 08:29:40;;;;;;;13.73;7.03;;;6.90;99.90;6.40;102351.00;;;;5061660;28;20178;-64
2022/01/27 08:32:17;;;;;;;6.03;3.33;;;6.90;99.90;6.60;102360.00;;;;5053218;28;20208;-62
2022/01/27 08:34:49;;;;;;;10.07;5.40;;;6.90;99.90;6.60;102351.00;;;;5054013;28;20645;-63
2022/01/27 08:37:21;;;;;;;3.00;2.57;;;7.00;99.90;6.60;102359.00;;;;5041385;28;20178;-63
2022/01/27 08:39:52;;;;;;;8.83;4.60;;;7.00;99.90;6.40;102323.00;;;;5053423;28;20517;-63
2022/01/27 08:42:21;;;;;;;9.47;6.53;;;6.90;99.90;6.70;102356.00;;;;5052529;28;20256;-63
2022/01/27 08:44:46;;;;;;;4.63;3.23;;;7.00;99.90;6.30;102320.00;;;;5073950;28;20173;-63
2022/01/27 08:47:14;;;;;;;5.07;2.67;;;6.80;99.90;6.30;102365.00;;;;5089057;28;20192;-64
2022/01/27 08:49:45;;;;;;;6.30;5.27;;;6.70;99.90;6.20;102355.00;;;;5055232;28;20251;-65
2022/01/27 08:52:16;;;;;;;3.67;3.40;;;6.70;99.90;6.10;102360.00;;;;5050900;28;20598;-64
2022/01/27 08:54:53;;;;;;;3.80;3.43;;;6.60;99.90;6.20;102374.00;;;;5054099;28;20549;-65
2022/01/27 08:57:22;;;;;;;8.53;4.93;;;6.60;99.90;6.40;102365.00;;;;5054454;28;20185;-64
2022/01/27 08:59:49;;;;;;;4.07;3.30;;;6.70;99.90;6.20;102359.00;;;;5073590;28;20228;-64
2022/01/27 09:02:23;;;;;;;13.77;7.50;;;6.70;99.90;6.00;102361.00;;;;5054806;28;20312;-64
2022/01/27 09:05:07;;;;;;;10.10;4.80;;;6.60;99.90;6.00;102363.00;;;;5053871;28;20194;-64
2022/01/27 09:07:36;;;;;;;13.60;9.60;;;6.60;99.90;6.00;102359.00;;;;5053501;28;20218;-65
2022/01/27 09:10:04;;;;;;;2.37;2.27;;;6.50;99.90;6.50;102347.00;;;;5066130;28;20186;-64
2022/01/27 09:12:33;;;;;;;4.47;1.93;;;6.60;99.90;6.20;102374.00;;;;5071264;28;20220;-64
2022/01/27 09:15:05;;;;;;;11.77;6.13;;;6.60;99.90;6.10;102365.00;;;;5054571;28;20278;-64
2022/01/27 09:17:38;;;;;;;11.90;6.30;;;6.50;99.90;6.30;102370.00;;;;5035127;28;20243;-64
2022/01/27 09:20:06;;;;;;;11.33;7.67;;;6.60;99.90;6.00;102371.00;;;;5053943;28;20189;-65
2022/01/27 09:22:35;;;;;;;7.87;4.27;;;6.50;99.90;6.10;102347.00;;;;5053330;28;20283;-64
2022/01/27 09:25:08;;;;;;;18.23;9.27;;;6.50;99.90;6.00;102371.00;;;;5035438;28;20630;-62
2022/01/27 09:27:42;;;;;;;13.03;8.33;;;6.50;99.90;6.30;102361.00;;;;5051841;28;20649;-62
2022/01/27 09:30:19;;;;;;;1.07;1.07;;;6.60;99.90;6.20;102368.00;;;;5052385;28;20547;-65
2022/01/27 09:32:50;;;;;;;6.57;3.73;;;6.60;99.90;6.40;102367.00;;;;5064697;28;20224;-65
2022/01/27 09:35:19;;;;;;;4.17;2.87;;;6.60;99.90;6.30;102365.00;;;;5053032;28;20185;-65
2022/01/27 09:37:50;;;;;;;5.97;5.13;;;6.60;99.90;6.60;102376.00;;;;5068221;28;20327;-65
2022/01/27 09:40:22;;;;;;;4.53;4.10;;;6.80;99.90;6.40;102388.00;;;;5052874;28;20186;-65
2022/01/27 09:42:52;;;;;;;8.43;5.63;;;6.80;99.90;6.80;102383.00;;;;5036704;28;20271;-65
2022/01/27 09:45:28;;;;;;;7.57;4.93;;;6.90;99.90;6.60;102389.00;;;;5045193;28;20707;-65
2022/01/27 09:48:10;;;;;;;6.10;5.10;;;6.90;99.90;6.20;102386.00;;;;5047691;28;20178;-65
2022/01/27 09:53:18;;;;;;;13.00;6.07;;;6.80;99.90;6.60;102377.00;;;;5046568;28;20684;-65
2022/01/27 09:55:49;;;;;;;2.83;2.63;;;6.80;99.90;6.40;102347.00;;;;5057301;28;20671;-65
2022/01/27 09:58:23;;;;;;;6.43;4.23;;;6.80;99.90;6.60;102386.00;;;;5067303;28;20258;-65
2022/01/27 10:00:54;;;;;;;0.93;0.93;;;6.80;99.90;6.80;102381.00;;;;5054254;28;20208;-65
2022/01/27 10:03:25;;;;;;;7.90;5.93;;;7.00;99.90;6.60;102356.00;;;;5066667;28;20196;-66
2022/01/27 10:06:13;;;;;;;4.13;3.27;;;6.90;99.90;6.40;102339.00;;;;5057800;28;20182;-66
2022/01/27 10:08:41;;;;;;;7.80;5.03;;;6.80;99.90;6.50;102384.00;;;;5058891;28;20197;-66
2022/01/27 10:11:18;;;;;;;17.87;10.70;;;6.90;99.90;6.60;102388.00;;;;5069846;28;20180;-66
2022/01/27 10:13:47;;;;;;;3.27;2.70;;;7.00;99.90;6.60;102388.00;;;;5049408;28;20182;-66
2022/01/27 10:16:41;;;;;;;2.80;1.80;;;6.90;99.90;6.50;102375.00;;;;5069952;28;20200;-66
2022/01/27 10:19:16;;;;;;;5.83;5.27;;;6.90;99.90;6.60;102393.00;;;;5059587;28;20733;-66
2022/01/27 10:33:22;;;;;;;3.73;2.07;;;6.90;99.90;6.50;102389.00;;;;5068234;28;20950;-63
2022/01/27 10:35:48;;;;;;;7.90;4.90;;;7.00;99.90;6.50;102391.00;;;;5039193;28;20182;-66
2022/01/27 10:38:14;;;;;;;16.20;8.47;;;7.00;99.90;6.80;102392.00;;;;5044752;28;20725;-66
2022/01/27 10:40:49;;;;;;;5.07;4.67;;;7.10;99.90;6.80;102385.00;;;;5065842;28;20276;-66
2022/01/27 10:44:25;;;;;;;2.03;1.57;;;7.20;99.90;7.50;102389.00;;;;5063892;28;20218;-66
2022/01/27 10:47:14;;;;;;;5.47;2.63;;;7.40;99.90;7.00;102377.00;;;;5065208;28;20174;-66
2022/01/27 10:50:46;;;;;;;3.23;2.87;;;7.40;99.90;7.10;102370.00;;;;5061245;28;20272;-65
2022/01/27 10:53:12;;;;;;;9.00;3.97;;;7.40;99.90;6.90;102370.00;;;;5065553;28;20188;-67
2022/01/27 10:56:05;;;;;;;8.17;3.67;;;7.30;99.90;7.00;102390.00;;;;5047937;28;20212;-66
2022/01/27 10:58:53;;;;;;;6.77;4.37;;;7.40;99.90;6.90;102393.00;;;;5058807;28;20704;-66
2022/01/27 11:01:28;;;;;;;15.03;2.67;;;7.30;99.90;7.20;102357.00;;;;5064764;28;20235;-66
2022/01/27 11:07:56;;;;;;;6.07;4.27;;;7.50;99.90;7.30;102392.00;;;;5066999;28;20193;-65
2022/01/27 11:11:08;;;;;;;7.43;4.13;;;7.60;99.90;7.40;102384.00;;;;5047680;28;20236;-66
2022/01/27 11:13:53;;;;;;;13.53;7.70;;;7.60;99.90;7.30;102385.00;;;;5080216;28;20265;-66
2022/01/27 11:16:44;;;;;;;5.17;4.77;;;7.60;99.90;7.60;102386.00;;;;5046661;28;20595;-66
2022/01/27 11:28:46;;;;;;;4.73;3.83;;;7.80;99.90;7.70;102373.00;;;;5065307;28;20208;-65
2022/01/27 11:31:47;;;;;;;6.67;5.83;;;7.80;99.90;7.60;102377.00;;;;5054434;28;20333;-65
2022/01/27 11:35:24;;;;;;;5.03;4.43;;;7.90;99.90;7.70;102382.00;;;;5050623;28;20233;-65
2022/01/27 11:38:04;;;;;;;8.33;4.57;;;7.90;99.90;7.70;102374.00;;;;5030954;28;20646;-65
2022/01/27 11:40:46;;;;;;;7.30;4.80;;;8.00;99.90;7.70;102366.00;;;;5015717;28;20195;-65
2022/01/27 11:43:15;;;;;;;6.30;4.23;;;8.00;99.90;7.70;102375.00;;;;5034573;28;20195;-66
2022/01/27 11:45:49;;;;;;;7.10;3.40;;;7.90;99.90;7.80;102363.00;;;;5010899;28;20184;-66
2022/01/27 11:48:25;;;;;;;4.23;3.63;;;8.00;99.90;8.00;102316.00;;;;5048378;28;20182;-66
2022/01/27 11:50:57;;;;;;;2.17;2.00;;;8.10;99.90;7.70;102351.00;;;;5051953;28;20695;-66
2022/01/27 11:53:35;;;;;;;5.63;3.53;;;8.10;99.90;7.90;102354.00;;;;5050105;28;20187;-66
2022/01/27 11:56:38;;;;;;;1.53;1.43;;;8.20;99.90;7.80;102351.00;;;;5046900;28;20193;-66
2022/01/27 11:59:36;;;;;;;5.47;2.73;;;8.10;99.90;8.10;102354.00;;;;5050297;28;20221;-65
2022/01/27 12:02:02;;;;;;;7.67;4.37;;;8.30;99.90;8.00;102336.00;;;;5046453;28;20190;-66
2022/01/27 12:04:28;;;;;;;8.63;4.30;;;8.20;99.90;8.50;102351.00;;;;5049122;28;20239;-65
2022/01/27 12:07:05;;;;;;;5.00;3.50;;;8.40;99.90;8.30;102357.00;;;;5051912;28;20197;-65
2022/01/27 12:09:34;;;;;;;11.03;5.60;;;8.40;99.90;8.50;102328.00;;;;5037857;28;20218;-66
2022/01/27 12:12:13;;;;;;;8.57;5.53;;;8.50;99.90;8.10;102352.00;;;;5032776;28;20198;-66
2022/01/27 12:14:41;;;;;;;4.67;1.67;;;8.40;99.90;8.30;102358.00;;;;5031760;28;20198;-66
2022/01/27 12:17:21;;;;;;;4.80;4.37;;;8.50;99.90;8.50;102359.00;;;;5037236;28;20186;-65
2022/01/27 12:19:50;;;;;;;4.67;3.20;;;8.50;99.90;8.40;102360.00;;;;5035577;28;20277;-65
2022/01/27 12:22:16;;;;;;;3.63;3.40;;;8.50;99.90;8.20;102356.00;;;;5034074;28;20674;-65
2022/01/27 12:24:56;;;;;;;4.83;3.00;;;8.50;99.90;8.40;102345.00;;;;5034588;28;20657;-65
2022/01/27 12:27:24;;;;;;;19.77;6.37;;;8.60;99.90;8.30;102341.00;;;;5035822;28;20214;-65
2022/01/27 12:29:53;;;;;;;6.33;5.57;;;8.60;99.90;8.40;102332.00;;;;5047683;28;20233;-66